Time;durP1;ratioP1;P1;durP2;ratioP2;P2;SDS_P1;SDS_P2;PMS_P1;PMS_P2;Temp;Humidity;BMP_temperature;BMP_pressure;BME280_temperature;BME280_humidity;BME280_pressure;Samples;Min_cycle;Max_cycle;Signal;HPM_P1;HPM_P2
2021/08/28 00:00:09;;;;;;;;;1.00;1.00;;;;;17.46;57.09;101745.09;6345573;22;45423;-96
2021/08/28 00:02:42;;;;;;;;;1.00;1.00;;;;;17.56;57.20;101763.28;6345539;22;45265;-96
2021/08/28 00:05:10;;;;;;;;;1.50;1.50;;;;;17.46;57.31;101747.81;6344251;22;44796;-96
2021/08/28 00:07:49;;;;;;;;;1.00;1.00;;;;;17.81;57.58;101807.50;6345066;22;47529;-96
2021/08/28 00:10:27;;;;;;;;;;;;;;;;;;;;;
2021/08/28 00:13:03;;;;;;;;;;;;;;;;;;;;;
2021/08/28 00:15:36;;;;;;;;;1.25;1.25;;;;;17.51;57.66;101770.06;6369909;22;69938;-96
2021/08/28 00:18:05;;;;;;;;;2.50;0.75;;;;;17.50;57.89;101768.31;6342281;22;46958;-96
2021/08/28 00:20:31;;;;;;;;;1.75;1.75;;;;;17.65;58.14;101797.00;6343108;22;45545;-96
2021/08/28 00:23:05;;;;;;;;;2.75;2.00;;;;;17.41;58.21;101759.88;6343222;22;45382;-96
2021/08/28 00:25:34;;;;;;;;;0.25;0.25;;;;;17.38;58.16;101748.41;6344117;22;45263;-96
2021/08/28 00:28:03;;;;;;;;;1.75;1.00;;;;;17.36;58.38;101762.13;6344463;22;47081;-96
2021/08/28 00:30:44;;;;;;;;;2.25;1.00;;;;;17.36;58.17;101759.41;6346092;22;45620;-96
2021/08/28 00:33:17;;;;;;;;;1.00;1.00;;;;;17.95;58.83;101863.47;6345259;22;45179;-95
2021/08/28 00:35:43;;;;;;;;;0.50;0.50;;;;;17.31;58.75;101764.31;6345100;22;45278;-96
2021/08/28 00:38:09;;;;;;;;;1.75;1.00;;;;;17.27;58.84;101749.25;6344771;22;48035;-96
2021/08/28 00:40:37;;;;;;;;;1.50;1.00;;;;;17.32;58.81;101776.03;6345723;22;45481;-96
2021/08/28 00:43:22;;;;;;;;;;;;;;;;;;;;;
2021/08/28 00:45:51;;;;;;;;;3.00;2.00;;;;;17.23;58.98;101766.78;6371852;22;69967;-96
2021/08/28 00:48:17;;;;;;;;;0.00;0.00;;;;;17.20;59.10;101759.72;6344930;22;46880;-96
2021/08/28 00:50:44;;;;;;;;;1.25;1.00;;;;;17.17;59.46;101762.66;6344956;22;45370;-96
2021/08/28 00:53:21;;;;;;;;;3.00;1.50;;;;;17.29;59.79;101784.44;6345400;22;45209;-96
2021/08/28 00:55:51;;;;;;;;;3.00;1.00;;;;;17.12;59.85;101758.56;6345849;22;44749;-96
2021/08/28 00:58:42;;;;;;;;;;;;;;;;;;;;;
2021/08/28 01:01:28;;;;;;;;;;;;;;;;;;;;;
2021/08/28 01:04:10;;;;;;;;;;;;;;;;;;;;;
2021/08/28 01:07:05;;;;;;;;;1.00;1.00;;;;;17.05;59.94;101764.47;6373095;22;69321;-96
2021/08/28 01:09:44;;;;;;;;;;;;;;;;;;;;;
2021/08/28 01:12:15;;;;;;;;;3.50;1.50;;;;;17.63;60.07;101855.97;6372488;22;72163;-96
2021/08/28 01:14:47;;;;;;;;;3.00;1.00;;;;;17.41;60.39;101824.19;6344752;22;45230;-96
2021/08/28 01:17:24;;;;;;;;;;;;;;;;;;;;;
2021/08/28 01:20:16;;;;;;;;;3.50;1.75;;;;;17.45;60.58;101827.53;6372519;22;74562;-96
2021/08/28 01:22:45;;;;;;;;;2.00;1.75;;;;;16.97;60.72;101764.19;6346312;22;45325;-96
2021/08/28 01:25:13;;;;;;;;;3.00;2.00;;;;;17.17;60.88;101791.66;6346105;22;45185;-96
2021/08/28 01:27:54;;;;;;;;;1.75;1.50;;;;;17.53;60.74;101858.53;6345364;22;45334;-96
2021/08/28 01:30:23;;;;;;;;;1.25;1.00;;;;;17.14;60.85;101800.91;6345880;22;47068;-96
2021/08/28 01:33:05;;;;;;;;;;;;;;;;;;;;;
2021/08/28 01:35:36;;;;;;;;;2.00;2.00;;;;;17.48;61.13;101858.00;6372019;22;68846;-96
2021/08/28 01:38:15;;;;;;;;;1.00;1.00;;;;;16.88;60.87;101759.44;6344927;22;45795;-96
2021/08/28 01:40:46;;;;;;;;;2.25;1.00;;;;;16.85;61.32;101754.22;6343480;22;47195;-96
2021/08/28 01:43:22;;;;;;;;;2.25;2.25;;;;;16.95;61.25;101774.31;6343984;22;45408;-96
2021/08/28 01:46:05;;;;;;;;;;;;;;;;;;;;;
2021/08/28 01:48:45;;;;;;;;;1.00;1.00;;;;;16.81;61.48;101756.31;6373690;22;69464;-96
2021/08/28 01:51:22;;;;;;;;;;;;;;;;;;;;;
2021/08/28 01:54:15;;;;;;;;;1.00;1.00;;;;;16.78;61.82;101746.59;6373343;22;73278;-96
2021/08/28 01:56:46;;;;;;;;;2.25;2.25;;;;;16.63;61.62;101728.75;6345686;22;45280;-96
2021/08/28 01:59:16;;;;;;;;;2.00;2.00;;;;;16.75;62.00;101749.50;6344147;22;45364;-96
2021/08/28 02:01:44;;;;;;;;;2.00;2.00;;;;;16.93;61.72;101782.50;6343560;22;46749;-96
2021/08/28 02:04:27;;;;;;;;;;;;;;;;;;;;;
2021/08/28 02:07:28;;;;;;;;;3.25;2.00;;;;;16.67;61.77;101748.34;6370675;22;68841;-96
2021/08/28 02:10:21;;;;;;;;;1.00;1.00;;;;;16.59;62.08;101743.50;6344336;22;45201;-96
2021/08/28 02:12:59;;;;;;;;;1.00;1.00;;;;;17.02;62.04;101815.41;6343556;22;47525;-96
2021/08/28 02:15:59;;;;;;;;;1.00;1.00;;;;;17.12;62.34;101829.13;6343066;22;45532;-96
2021/08/28 02:18:35;;;;;;;;;1.00;0.50;;;;;16.62;62.36;101754.13;6330294;22;45297;-95
2021/08/28 02:21:13;;;;;;;;;;;;;;;;;;;;;
2021/08/28 02:24:04;;;;;;;;;2.00;1.50;;;;;16.50;62.39;101742.34;6367799;22;75305;-96
2021/08/28 02:26:42;;;;;;;;;1.75;1.75;;;;;16.61;62.47;101769.50;6343596;22;45260;-96
2021/08/28 02:29:26;;;;;;;;;2.00;1.50;;;;;16.51;62.60;101751.38;6343449;22;45360;-96
2021/08/28 02:32:01;;;;;;;;;3.00;1.00;;;;;16.49;62.90;101760.47;6342507;22;44802;-96
2021/08/28 02:34:35;;;;;;;;;4.00;1.00;;;;;16.81;62.74;101818.69;6339812;22;46960;-96
2021/08/28 02:37:05;;;;;;;;;1.25;1.25;;;;;16.58;62.75;101798.72;6342158;22;45223;-96
2021/08/28 02:39:38;;;;;;;;;1.25;1.25;;;;;16.41;63.17;101767.44;6342895;22;45198;-96
2021/08/28 02:42:15;;;;;;;;;;;;;;;;;;;;;
2021/08/28 02:44:48;;;;;;;;;1.00;0.75;;;;;16.38;63.08;101768.50;6369222;22;74415;-96
2021/08/28 02:47:26;;;;;;;;;;;;;;;;;;;;;
2021/08/28 02:49:53;;;;;;;;;2.00;2.00;;;;;16.37;63.01;101757.78;6369346;22;68199;-96
2021/08/28 02:52:22;;;;;;;;;3.50;1.00;;;;;16.35;62.91;101760.63;6342646;22;45305;-96
2021/08/28 02:54:50;;;;;;;;;2.50;2.00;;;;;16.42;63.08;101772.72;6343207;22;46776;-96
2021/08/28 02:57:20;;;;;;;;;2.00;1.00;;;;;16.74;63.29;101818.28;6342952;22;45758;-96
2021/08/28 02:59:46;;;;;;;;;2.00;2.00;;;;;16.35;63.41;101755.19;6342893;22;45225;-96
2021/08/28 03:02:17;;;;;;;;;3.75;1.00;;;;;16.60;63.32;101794.03;6342691;22;45234;-96
2021/08/28 03:04:47;;;;;;;;;3.00;2.00;;;;;16.71;63.62;101806.81;6342955;22;47548;-96
2021/08/28 03:07:14;;;;;;;;;1.25;1.25;;;;;16.35;63.60;101760.63;6342724;22;45390;-96
2021/08/28 03:09:42;;;;;;;;;3.00;1.75;;;;;16.43;63.29;101766.34;6342569;22;45193;-96
2021/08/28 03:12:08;;;;;;;;;1.00;1.00;;;;;16.66;63.77;101807.16;6341838;22;45219;-96
2021/08/28 03:14:34;;;;;;;;;1.25;1.25;;;;;16.72;63.55;101814.81;6341739;22;47510;-96
2021/08/28 03:17:02;;;;;;;;;2.00;2.00;;;;;16.60;63.59;101796.75;6341736;22;45414;-96
2021/08/28 03:19:29;;;;;;;;;3.75;1.00;;;;;16.31;63.84;101759.09;6341534;22;45152;-96
2021/08/28 03:22:03;;;;;;;;;1.50;1.50;;;;;16.52;63.76;101789.19;6342157;22;45202;-96
2021/08/28 03:24:31;;;;;;;;;2.75;2.00;;;;;16.39;64.14;101783.78;6341927;22;47285;-96
2021/08/28 03:26:59;;;;;;;;;2.50;2.50;;;;;16.16;64.04;101747.56;6341718;22;45200;-96
2021/08/28 03:29:25;;;;;;;;;1.00;1.00;;;;;16.17;63.75;101750.16;6342033;22;45433;-96
2021/08/28 03:32:00;;;;;;;;;2.00;1.00;;;;;16.09;63.89;101733.59;6341639;22;45306;-96
2021/08/28 03:34:26;;;;;;;;;1.00;1.00;;;;;16.10;64.38;101748.00;6341832;22;47592;-96
2021/08/28 03:36:53;;;;;;;;;3.25;1.75;;;;;16.44;63.96;101808.72;6341822;22;45359;-96
2021/08/28 03:39:21;;;;;;;;;5.50;0.25;;;;;16.19;63.93;101764.44;6341565;22;45206;-96
2021/08/28 03:41:47;;;;;;;;;1.00;1.00;;;;;16.39;64.11;101796.50;6341996;22;45289;-95
2021/08/28 03:44:17;;;;;;;;;3.00;3.00;;;;;16.15;64.21;101760.22;6341690;22;47344;-96
2021/08/28 03:46:50;;;;;;;;;1.50;1.50;;;;;16.49;64.45;101811.09;6341281;22;45276;-96
2021/08/28 03:49:16;;;;;;;;;3.25;1.75;;;;;16.38;64.18;101797.47;6342390;22;45349;-96
2021/08/28 03:51:47;;;;;;;;;2.00;2.00;;;;;16.45;64.36;101802.31;6342626;22;45443;-96
2021/08/28 03:54:20;;;;;;;;;1.50;1.50;;;;;16.11;64.49;101752.44;6341567;22;46756;-96
2021/08/28 03:56:46;;;;;;;;;2.00;2.00;;;;;16.48;64.75;101822.91;6342096;22;45425;-96
2021/08/28 03:59:15;;;;;;;;;2.50;1.50;;;;;16.01;64.80;101741.41;6341967;22;45190;-96
2021/08/28 04:01:40;;;;;;;;;2.75;2.25;;;;;16.59;64.64;101844.72;6342876;22;45492;-96
2021/08/28 04:04:09;;;;;;;;;1.00;1.00;;;;;16.45;64.54;101817.75;6342615;22;46773;-96
2021/08/28 04:06:44;;;;;;;;;;;;;;;;;;;;;
2021/08/28 04:09:13;;;;;;;;;2.25;1.00;;;;;16.03;64.73;101751.13;6370217;22;68906;-95
2021/08/28 04:11:44;;;;;;;;;2.25;0.75;;;;;15.94;64.96;101732.00;6342495;22;45394;-96
2021/08/28 04:14:09;;;;;;;;;4.75;2.50;;;;;16.47;64.79;101824.78;6342617;22;47698;-95
2021/08/28 04:16:56;;;;;;;;;;;;;;;;;;;;;
2021/08/28 04:19:29;;;;;;;;;2.25;0.75;;;;;16.22;64.95;101784.19;6369939;22;68109;-96
2021/08/28 04:21:55;;;;;;;;;3.00;2.00;;;;;15.95;64.99;101744.56;6343065;22;45136;-96
2021/08/28 04:24:23;;;;;;;;;1.00;1.00;;;;;16.33;65.35;101805.94;6342135;22;46719;-96
2021/08/28 04:26:49;;;;;;;;;1.25;1.00;;;;;16.21;65.32;101783.28;6341984;22;45353;-96
2021/08/28 04:29:28;;;;;;;;;2.25;2.25;;;;;16.32;65.53;101807.75;6342096;22;45407;-96
2021/08/28 04:31:57;;;;;;;;;4.25;2.00;;;;;16.35;65.53;101820.25;6342848;22;45173;-95
2021/08/28 04:34:22;;;;;;;;;2.00;1.50;;;;;15.91;65.43;101748.47;6338765;22;47898;-96
2021/08/28 04:36:48;;;;;;;;;1.75;1.75;;;;;16.22;65.25;101805.84;6342286;22;45438;-94
2021/08/28 04:39:24;;;;;;;;;;;;;;;;;;;;;
2021/08/28 04:42:01;;;;;;;;;2.00;2.00;;;;;16.19;65.57;101793.38;6369537;22;69027;-96
2021/08/28 04:44:39;;;;;;;;;;;;;;;;;;;;;
2021/08/28 04:47:05;;;;;;;;;1.75;1.75;;;;;16.27;65.58;101811.78;6369245;22;71806;-96
2021/08/28 04:49:30;;;;;;;;;1.00;0.50;;;;;15.86;65.73;101741.53;6343088;22;45431;-94
2021/08/28 04:51:59;;;;;;;;;1.75;1.75;;;;;16.35;65.74;101822.97;6343629;22;45178;-96
2021/08/28 04:54:36;;;;;;;;;;;;;;;;;;;;;
2021/08/28 04:57:02;;;;;;;;;3.75;2.00;;;;;16.31;65.92;101818.72;6371490;22;72798;-96
2021/08/28 04:59:37;;;;;;;;;1.25;1.25;;;;;15.91;65.83;101760.16;6343398;22;45301;-96
2021/08/28 05:02:06;;;;;;;;;1.00;1.00;;;;;15.90;65.96;101754.84;6343669;22;45370;-95
2021/08/28 05:04:32;;;;;;;;;1.50;1.50;;;;;16.26;66.29;101827.19;6343972;22;47607;-96
2021/08/28 05:06:58;;;;;;;;;8.50;2.50;;;;;16.08;66.22;101796.88;6342601;22;45210;-96
2021/08/28 05:09:26;;;;;;;;;2.00;1.00;;;;;15.91;66.19;101768.28;6344035;22;45444;-96
2021/08/28 05:12:02;;;;;;;;;3.75;2.50;;;;;16.34;66.30;101829.34;6343117;22;45468;-96
2021/08/28 05:14:40;;;;;;;;;;;;;;;;;;;;;
2021/08/28 05:17:06;;;;;;;;;1.25;1.00;;;;;15.95;66.23;101764.38;6371973;22;72188;-95
2021/08/28 05:19:33;;;;;;;;;3.50;2.50;;;;;16.33;66.48;101825.75;6342352;22;45174;-96
2021/08/28 05:21:59;;;;;;;;;1.25;1.00;;;;;16.03;66.58;101786.34;6342947;22;45517;-96
2021/08/28 05:24:37;;;;;;;;;;;;;;;;;;;;;
2021/08/28 05:27:03;;;;;;;;;3.00;2.00;;;;;16.45;66.43;101843.00;6370929;22;73450;-96
2021/08/28 05:29:31;;;;;;;;;2.00;2.00;;;;;16.15;66.44;101791.88;6342761;22;45518;-96
2021/08/28 05:32:13;;;;;;;;;3.00;2.00;;;;;15.97;66.75;101767.84;6343009;22;45206;-96
2021/08/28 05:34:57;;;;;;;;;4.00;2.50;;;;;16.02;66.75;101776.50;6342427;22;46922;-96
2021/08/28 05:37:32;;;;;;;;;3.00;3.00;;;;;16.35;66.72;101825.66;6342473;22;45338;-96
2021/08/28 05:40:19;;;;;;;;;1.75;1.75;;;;;16.62;66.81;101873.44;6342898;22;45290;-96
2021/08/28 05:43:13;;;;;;;;;1.75;1.75;;;;;16.02;66.69;101775.63;6343007;22;45178;-96
2021/08/28 05:45:46;;;;;;;;;4.00;3.00;;;;;16.04;66.95;101773.69;6344300;22;46627;-95
2021/08/28 05:48:30;;;;;;;;;3.00;3.00;;;;;16.24;66.90;101801.19;6342208;22;45596;-96
2021/08/28 05:51:15;;;;;;;;;3.25;3.00;;;;;16.40;66.98;101831.59;6343139;22;45295;-96
2021/08/28 05:53:41;;;;;;;;;2.50;2.50;;;;;16.52;66.89;101848.84;6343386;22;45311;-96
2021/08/28 05:56:27;;;;;;;;;;;;;;;;;;;;;
2021/08/28 06:02:11;;;;;;;;;;;;;;;;;;;;;
2021/08/28 06:04:56;;;;;;;;;;;;;;;;;;;;;
2021/08/28 06:07:32;;;;;;;;;5.00;4.25;;;;;16.13;67.14;101766.75;6368723;22;75733;-95
2021/08/28 06:10:25;;;;;;;;;2.00;2.00;;;;;16.29;66.69;101782.75;6342256;22;45124;-96
2021/08/28 06:13:02;;;;;;;;;3.00;2.50;;;;;16.08;66.89;101756.25;6342657;22;44632;-96
2021/08/28 06:15:38;;;;;;;;;;;;;;;;;;;;;
2021/08/28 06:18:16;;;;;;;;;;;;;;;;;;;;;
2021/08/28 06:21:02;;;;;;;;;1.00;1.00;;;;;16.24;67.07;101780.38;6369362;22;71821;-96
2021/08/28 06:23:33;;;;;;;;;2.25;2.25;;;;;16.30;67.00;101787.19;6342599;22;45244;-96
2021/08/28 06:26:07;;;;;;;;;1.75;1.00;;;;;16.49;67.14;101821.94;6342369;22;45439;-96
2021/08/28 06:28:36;;;;;;;;;4.75;3.00;;;;;16.63;66.99;101848.91;6343094;22;46619;-96
2021/08/28 06:31:14;;;;;;;;;1.00;1.00;;;;;16.27;66.80;101774.75;6342904;22;45603;-96
2021/08/28 06:34:06;;;;;;;;;;;;;;;;;;;;;
2021/08/28 06:36:34;;;;;;;;;1.00;1.00;;;;;16.63;66.62;101835.34;6369966;22;69254;-95
2021/08/28 06:39:08;;;;;;;;;4.25;2.00;;;;;16.37;66.97;101787.59;6341678;22;46829;-96
2021/08/28 06:41:46;;;;;;;;;;;;;;;;;;;;;
2021/08/28 06:44:21;;;;;;;;;2.50;2.50;;;;;16.37;67.22;101793.91;6369900;22;68097;-96
2021/08/28 06:46:50;;;;;;;;;3.50;2.25;;;;;16.27;67.18;101779.28;6342296;22;44860;-96
2021/08/28 06:49:19;;;;;;;;;2.00;2.00;;;;;16.33;67.50;101776.13;6342463;22;46588;-96
2021/08/28 06:51:53;;;;;;;;;1.50;1.50;;;;;16.59;67.31;101824.84;6342545;22;45455;-96
2021/08/28 06:54:34;;;;;;;;;;;;;;;;;;;;;
2021/08/28 06:57:20;;;;;;;;;5.00;3.50;;;;;17.04;67.55;101901.13;6369845;22;69378;-96
2021/08/28 06:59:48;;;;;;;;;3.50;2.00;;;;;16.71;67.47;101834.78;6341993;22;46967;-96
2021/08/28 07:02:24;;;;;;;;;;;;;;;;;;;;;
2021/08/28 07:04:52;;;;;;;;;4.25;3.00;;;;;16.54;67.06;101799.91;6369177;22;68831;-96
2021/08/28 07:07:30;;;;;;;;;2.25;2.25;;;;;16.79;66.92;101855.91;6342814;22;45318;-96
2021/08/28 07:10:03;;;;;;;;;3.00;2.00;;;;;16.50;67.12;101807.41;6343032;22;47694;-96
2021/08/28 07:13:15;;;;;;;;;;;;;;;;;;;;;
2021/08/28 07:16:09;;;;;;;;;;;;;;;;;;;;;
2021/08/28 07:18:48;;;;;;;;;1.75;1.50;;;;;16.57;67.18;101815.97;6367334;22;45602;-96
2021/08/28 07:21:21;;;;;;;;;3.25;3.25;;;;;16.78;67.34;101829.78;6341990;22;48240;-96
2021/08/28 07:23:47;;;;;;;;;4.00;4.00;;;;;16.67;67.23;101799.88;6341688;22;45408;-96
2021/08/28 07:26:15;;;;;;;;;4.00;2.00;;;;;16.90;67.48;101842.41;6342169;22;45188;-96
2021/08/28 07:28:41;;;;;;;;;4.00;2.75;;;;;16.90;67.14;101838.84;6341579;22;45246;-96
2021/08/28 07:31:07;;;;;;;;;2.75;2.75;;;;;16.74;67.21;101795.75;6341567;22;46201;-95
2021/08/28 07:33:33;;;;;;;;;4.00;3.00;;;;;17.19;67.63;101865.69;6341892;22;44787;-95
2021/08/28 07:36:03;;;;;;;;;2.75;2.75;;;;;16.84;67.78;101801.31;6350235;22;45286;-96
2021/08/28 07:38:41;;;;;;;;;;;;;;;;;;;;;
2021/08/28 07:41:10;;;;;;;;;5.50;5.50;;;;;16.94;67.40;101811.41;6364556;22;73936;-96
2021/08/28 07:43:38;;;;;;;;;5.50;3.00;;;;;17.57;67.14;101910.75;6341158;22;45666;-96
2021/08/28 07:46:13;;;;;;;;;5.00;4.00;;;;;17.22;66.80;101841.88;6341736;22;45405;-96
2021/08/28 07:48:42;;;;;;;;;3.25;3.25;;;;;17.42;67.59;101869.38;6341327;22;45363;-96
2021/08/28 07:51:08;;;;;;;;;4.00;4.00;;;;;17.07;66.74;101805.94;6342121;22;46829;-96
2021/08/28 07:53:36;;;;;;;;;4.00;4.00;;;;;17.26;66.89;101837.06;6341294;22;45357;-95
2021/08/28 07:56:02;;;;;;;;;4.75;4.75;;;;;17.03;66.62;101787.25;6341339;22;45166;-95
2021/08/28 07:58:37;;;;;;;;;6.25;5.75;;;;;17.23;66.59;101818.34;6341495;22;45175;-96
2021/08/28 08:01:08;;;;;;;;;7.00;5.00;;;;;17.12;66.61;101796.56;6341511;22;46723;-96
2021/08/28 08:03:37;;;;;;;;;6.50;4.50;;;;;17.51;66.78;101857.78;6341088;22;45200;-96
2021/08/28 08:06:12;;;;;;;;;5.50;5.00;;;;;17.56;66.37;101838.41;6339845;22;45211;-96
2021/08/28 08:08:40;;;;;;;;;5.00;5.00;;;;;17.32;66.84;101779.63;6341849;22;45153;-95
2021/08/28 08:11:16;;;;;;;;;;;;;;;;;;;;;
2021/08/28 08:13:54;;;;;;;;;;;;;;;;;;;;;
2021/08/28 08:16:33;;;;;;;;;;;;;;;;;;;;;
2021/08/28 08:19:28;;;;;;;;;4.75;4.75;;;;;17.78;65.40;101798.72;6370177;22;69254;-96
2021/08/28 08:22:30;;;;;;;;;;;;;;;;;;;;;
2021/08/28 08:25:18;;;;;;;;;6.00;5.00;;;;;17.89;65.28;101815.03;6369513;22;73004;-96
2021/08/28 08:31:56;;;;;;;;;;;;;;;;;;;;;
2021/08/28 08:34:24;;;;;;;;;4.75;4.00;;;;;17.77;65.37;101775.28;6273698;22;74571;-96
2021/08/28 08:37:17;;;;;;;;;;;;;;;;;;;;;
2021/08/28 08:39:48;;;;;;;;;4.75;3.50;;;;;17.96;65.53;101797.25;6281267;22;68138;-96
2021/08/28 08:46:29;;;;;;;;;;;;;;;;;;;;;
2021/08/28 08:49:57;;;;;;;;;;;;;;;;;;;;;
2021/08/28 08:54:12;;;;;;;;;;;;;;;;;;;;;
2021/08/28 08:57:01;;;;;;;;;3.00;3.00;;;;;19.04;64.75;101904.66;6096071;23;45343;-96
2021/08/28 08:59:30;;;;;;;;;3.25;3.25;;;;;18.55;65.45;101827.91;6067244;23;46791;-96
2021/08/28 09:06:08;;;;;;;;;1.00;1.00;;;;;18.50;65.30;101843.75;6069272;23;45189;-96
2021/08/28 09:09:26;;;;;;;;;;;;;;;;;;;;;
2021/08/28 09:12:10;;;;;;;;;4.00;2.00;;;;;18.56;65.62;101886.75;6031542;23;75326;-96
2021/08/28 09:15:07;;;;;;;;;;;;;;;;;;;;;
2021/08/28 09:18:32;;;;;;;;;;;;;;;;;;;;;
2021/08/28 09:24:32;;;;;;;;;;;;;;;;;;;;;
2021/08/28 09:27:57;;;;;;;;;;;;;;;;;;;;;
2021/08/28 09:30:38;;;;;;;;;4.50;4.50;;;;;18.21;65.49;101829.78;6036987;23;67709;-96
2021/08/28 09:33:22;;;;;;;;;;;;;;;;;;;;;
2021/08/28 09:36:34;;;;;;;;;;;;;;;;;;;;;
2021/08/28 09:39:07;;;;;;;;;4.75;4.00;;;;;18.38;65.06;101851.03;6122765;23;45534;-96
2021/08/28 09:48:46;;;;;;;;;;;;;;;;;;;;;
2021/08/28 09:51:27;;;;;;;;;;;;;;;;;;;;;
2021/08/28 09:54:11;;;;;;;;;;;;;;;;;;;;;
2021/08/28 09:57:16;;;;;;;;;4.25;4.00;;;;;18.32;65.43;101811.63;6212506;22;70147;-96
2021/08/28 10:00:08;;;;;;;;;4.00;4.00;;;;;18.89;65.03;101904.03;6169156;22;45521;-95
2021/08/28 10:03:05;;;;;;;;;;;;;;;;;;;;;
2021/08/28 10:05:56;;;;;;;;;4.00;4.00;;;;;18.71;64.91;101868.34;6275172;22;68893;-96
2021/08/28 10:09:04;;;;;;;;;3.00;3.00;;;;;18.46;64.86;101817.78;6336979;22;44820;-95
2021/08/28 10:11:42;;;;;;;;;3.00;3.00;;;;;18.66;64.91;101835.19;6339032;22;46132;-96
2021/08/28 10:21:39;;;;;;;;;;;;;;;;;;;;;
2021/08/28 10:28:01;;;;;;;;;;;;;;;;;;;;;
2021/08/28 10:41:22;;;;;;;;;3.50;2.00;;;;;19.21;62.54;101867.00;5922069;24;45194;-96
2021/08/28 10:44:08;;;;;;;;;;;;;;;;;;;;;
2021/08/28 10:46:34;;;;;;;;;2.25;2.25;;;;;18.93;62.75;101803.97;5922783;24;69247;-96
2021/08/28 10:49:21;;;;;;;;;;;;;;;;;;;;;
2021/08/28 10:51:54;;;;;;;;;3.50;3.50;;;;;19.45;61.30;101861.34;5922605;24;72924;-96
2021/08/28 10:54:38;;;;;;;;;5.25;3.00;;;;;19.37;61.08;101826.59;5894385;23;45253;-96
2021/08/28 10:57:18;;;;;;;;;4.00;4.00;;;;;19.61;60.57;101840.94;5955180;23;45269;-96
2021/08/28 11:00:14;;;;;;;;;4.50;3.25;;;;;19.30;61.13;101772.78;5955981;23;46760;-96
2021/08/28 11:03:57;;;;;;;;;;;;;;;;;;;;;
2021/08/28 11:06:24;;;;;;;;;1.25;1.25;;;;;19.81;59.88;101828.31;6008509;23;69196;-96
2021/08/28 11:09:04;;;;;;;;;2.50;1.50;;;;;20.11;59.79;101860.22;6037019;23;45152;-96
2021/08/28 11:11:42;;;;;;;;;2.25;2.00;;;;;20.01;59.35;101834.78;6054171;23;46909;-96
2021/08/28 11:14:13;;;;;;;;;3.00;2.25;;;;;19.77;58.89;101773.22;6047759;23;45193;-96
2021/08/28 11:16:46;;;;;;;;;3.25;1.00;;;;;20.32;58.75;101842.06;6094493;23;45280;-96
2021/08/28 11:19:45;;;;;;;;;;;;;;;;;;;;;
2021/08/28 11:22:23;;;;;;;;;3.00;2.00;;;;;20.08;58.52;101784.19;6210755;22;74230;-96
2021/08/28 11:25:06;;;;;;;;;2.00;2.00;;;;;20.31;57.88;101811.22;6211709;22;45684;-96
2021/08/28 11:27:44;;;;;;;;;3.00;3.00;;;;;20.43;58.08;101825.63;6211722;22;45328;-96
2021/08/28 11:30:13;;;;;;;;;3.00;3.00;;;;;20.39;58.13;101819.56;6186162;22;45295;-96
2021/08/28 11:32:49;;;;;;;;;;;;;;;;;;;;;
2021/08/28 11:35:15;;;;;;;;;5.25;4.00;;;;;20.40;57.84;101828.63;6337503;22;72886;-96
2021/08/28 11:37:41;;;;;;;;;2.00;2.00;;;;;20.25;57.58;101800.84;6336743;22;45237;-96
2021/08/28 11:40:28;;;;;;;;;2.00;2.00;;;;;20.74;57.82;101883.75;6336652;22;45364;-96
2021/08/28 11:43:11;;;;;;;;;;;;;;;;;;;;;
2021/08/28 11:45:44;;;;;;;;;3.00;1.75;;;;;20.28;57.38;101790.56;6337392;22;72267;-96
2021/08/28 11:48:14;;;;;;;;;3.00;3.00;;;;;20.49;57.31;101818.75;6337082;22;45216;-96
2021/08/28 11:50:50;;;;;;;;;1.75;1.75;;;;;20.27;56.91;101780.66;6336641;22;45369;-96
2021/08/28 11:53:26;;;;;;;;;2.75;1.25;;;;;20.77;56.22;101860.78;6335871;22;46607;-96
2021/08/28 11:56:01;;;;;;;;;2.50;1.00;;;;;20.28;56.86;101767.88;6336249;22;45397;-96
2021/08/28 11:58:36;;;;;;;;;1.25;1.25;;;;;20.71;56.48;101823.97;6336499;22;45394;-96
2021/08/28 12:01:10;;;;;;;;;2.25;2.00;;;;;20.44;56.65;101767.34;6339040;22;45325;-95
2021/08/28 12:03:35;;;;;;;;;2.00;2.00;;;;;20.72;55.16;101822.13;6340425;22;46715;-96
2021/08/28 12:06:15;;;;;;;;;2.00;2.00;;;;;20.77;55.81;101813.53;6340745;22;45268;-96
2021/08/28 12:09:24;;;;;;;;;2.00;2.00;;;;;20.47;55.41;101760.75;6350712;22;44789;-96
2021/08/28 12:42:40;;;;;;;;;;;;;;;;;;;;;
2021/08/28 12:45:51;;;;;;;;;;;;;;;;;;;;;
2021/08/28 12:49:53;;;;;;;;;;;;;;;;;;;;;
2021/08/28 12:56:26;;;;;;;;;;;;;;;;;;;;;
2021/08/28 12:59:24;;;;;;;;;2.25;2.25;;;;;20.89;52.34;101779.66;6023581;23;71789;-96
2021/08/28 13:02:04;;;;;;;;;1.00;1.00;;;;;21.26;52.57;101828.09;5997295;23;45328;-96
2021/08/28 13:05:37;;;;;;;;;3.00;3.00;;;;;20.80;52.48;101751.34;6006252;23;44796;-96
2021/08/28 13:08:05;;;;;;;;;2.75;2.75;;;;;20.84;52.40;101754.66;5995427;23;47232;-96
2021/08/28 13:10:31;;;;;;;;;1.00;1.00;;;;;20.95;52.33;101764.56;5995559;23;45462;-96
2021/08/28 13:13:09;;;;;;;;;2.00;2.00;;;;;21.21;52.68;101798.47;5995429;23;45181;-96
2021/08/28 13:15:41;;;;;;;;;2.00;2.00;;;;;20.97;52.56;101757.09;6091248;23;45297;-95
2021/08/28 13:18:12;;;;;;;;;4.00;2.00;;;;;21.47;52.21;101827.94;6135224;23;46750;-96
2021/08/28 13:20:55;;;;;;;;;1.50;0.50;;;;;20.93;52.22;101747.47;6133786;23;45424;-95
2021/08/28 13:23:46;;;;;;;;;;;;;;;;;;;;;
2021/08/28 13:26:14;;;;;;;;;2.25;2.25;;;;;21.37;52.76;101788.84;6219932;22;70140;-96
2021/08/28 13:29:00;;;;;;;;;;;;;;;;;;;;;
2021/08/28 13:31:35;;;;;;;;;2.00;2.00;;;;;20.95;53.22;101734.53;6294759;22;72849;-96
2021/08/28 13:34:12;;;;;;;;;2.00;2.00;;;;;21.50;53.89;101815.88;6314384;22;45401;-94
2021/08/28 13:36:37;;;;;;;;;1.75;1.75;;;;;21.08;53.81;101747.91;6311234;22;45377;-95
